Time;durP1;ratioP1;P1;durP2;ratioP2;P2;SDS_P1;SDS_P2;PMS_P1;PMS_P2;Temp;Humidity;BMP_temperature;BMP_pressure;BME280_temperature;BME280_humidity;BME280_pressure;Samples;Min_cycle;Max_cycle;Signal;HPM_P1;HPM_P2
2021/05/17 00:00:24;;;;;;;3.03;1.40;;;;;;;;;;5109977;28;20345;-71
2021/05/17 00:02:50;;;;;;;7.82;1.33;;;;;;;;;;5110383;28;20361;-70
2021/05/17 00:06:19;;;;;;;1.92;1.15;;;;;;;;;;5070057;28;20360;-70
2021/05/17 00:08:46;;;;;;;1.77;0.82;;;;;;;;;;5069778;28;20037;-70
2021/05/17 00:11:13;;;;;;;2.47;0.80;;;;;;;;;;5069892;28;20473;-70
2021/05/17 00:20:18;;;;;;;1.10;0.80;;;;;;;;;;5110432;27;20454;-70
2021/05/17 00:22:45;;;;;;;1.00;0.60;;;;;;;;;;5110078;28;20370;-70
2021/05/17 00:25:50;;;;;;;2.90;0.70;;;;;;;;;;5110484;27;20779;-70
2021/05/17 00:28:16;;;;;;;2.45;0.75;;;;;;;;;;5110377;28;20024;-70
2021/05/17 00:30:43;;;;;;;3.45;1.13;;;;;;;;;;5108973;28;20323;-71
2021/05/17 00:37:15;;;;;;;1.95;0.77;;;;;;;;;;5109986;27;20389;-69
2021/05/17 00:40:43;;;;;;;2.72;0.70;;;;;;;;;;5110472;27;20377;-70
2021/05/17 00:43:10;;;;;;;3.10;1.20;;;;;;;;;;5108694;28;20024;-70
2021/05/17 00:45:36;;;;;;;2.38;0.80;;;;;;;;;;5110397;28;20026;-70
2021/05/17 00:49:22;;;;;;;1.15;0.60;;;;;;;;;;5110420;27;20446;-69
2021/05/17 00:51:48;;;;;;;3.83;0.93;;;;;;;;;;5110479;28;20024;-70
2021/05/17 00:56:11;;;;;;;1.65;0.75;;;;;;;;;;5110446;27;20786;-70
2021/05/17 00:58:38;;;;;;;1.42;0.80;;;;;;;;;;5110047;28;20384;-70
2021/05/17 01:01:05;;;;;;;1.65;0.77;;;;;;;;;;5110368;28;20020;-70
2021/05/17 01:03:31;;;;;;;2.63;0.70;;;;;;;;;;5108607;28;20048;-70
2021/05/17 01:05:59;;;;;;;2.78;0.77;;;;;;;;;;5110298;28;20047;-69
2021/05/17 01:11:25;;;;;;;1.40;0.75;;;;;;;;;;5110189;27;20380;-70
2021/05/17 01:13:51;;;;;;;2.10;0.60;;;;;;;;;;5110452;28;20028;-70
2021/05/17 01:16:19;;;;;;;1.35;0.50;;;;;;;;;;5109114;28;20020;-70
2021/05/17 01:19:54;;;;;;;1.38;0.63;;;;;;;;;;5110044;27;20389;-70
2021/05/17 01:22:23;;;;;;;1.13;0.75;;;;;;;;;;5110305;28;20370;-69
2021/05/17 01:30:02;;;;;;;1.65;0.80;;;;;;;;;;5110631;27;20384;-69
2021/05/17 01:33:45;;;;;;;1.23;0.90;;;;;;;;;;5110201;27;20884;-70
2021/05/17 01:40:59;;;;;;;2.42;0.80;;;;;;;;;;5110431;27;20389;-70
2021/05/17 01:45:52;;;;;;;1.65;0.80;;;;;;;;;;5172120;27;20716;-70
2021/05/17 01:48:44;;;;;;;1.60;0.88;;;;;;;;;;5110713;27;20381;-70
2021/05/17 01:51:15;;;;;;;1.67;0.90;;;;;;;;;;5110500;28;20031;-69
2021/05/17 01:53:42;;;;;;;1.75;0.80;;;;;;;;;;5110075;28;20024;-70
2021/05/17 01:56:09;;;;;;;3.40;1.17;;;;;;;;;;5110359;28;20069;-70
2021/05/17 01:59:59;;;;;;;1.95;1.23;;;;;;;;;;5110176;27;20389;-70
2021/05/17 02:02:26;;;;;;;7.75;2.30;;;;;;;;;;5110503;28;20020;-70
2021/05/17 02:05:41;;;;;;;2.20;1.30;;;;;;;;;;5110466;27;20381;-70
2021/05/17 02:08:11;;;;;;;3.10;1.20;;;;;;;;;;5110293;28;20098;-70
2021/05/17 02:12:39;;;;;;;1.35;0.60;;;;;;;;;;5110468;27;20373;-70
2021/05/17 02:17:23;;;;;;;1.58;0.73;;;;;;;;;;5112831;27;1199155;-69
2021/05/17 02:19:49;;;;;;;2.10;0.75;;;;;;;;;;5130953;28;20030;-69
2021/05/17 02:23:18;;;;;;;2.05;0.60;;;;;;;;;;5110465;27;20392;-69
2021/05/17 02:26:19;;;;;;;2.10;0.73;;;;;;;;;;5069939;28;20786;-70
2021/05/17 02:28:46;;;;;;;2.50;1.02;;;;;;;;;;5069750;28;20020;-70
2021/05/17 02:34:44;;;;;;;5.05;1.90;;;;;;;;;;5110459;27;20385;-70
2021/05/17 02:40:04;;;;;;;4.53;1.60;;;;;;;;;;5110515;27;20441;-70
2021/05/17 02:42:33;;;;;;;4.22;1.52;;;;;;;;;;5110148;28;20024;-69
2021/05/17 02:44:59;;;;;;;1.55;0.80;;;;;;;;;;5110464;28;20518;-70
2021/05/17 02:47:26;;;;;;;2.30;1.02;;;;;;;;;;5110481;28;20065;-72
2021/05/17 02:49:53;;;;;;;0.88;0.73;;;;;;;;;;5110150;28;20050;-69
2021/05/17 02:52:19;;;;;;;1.85;0.80;;;;;;;;;;5110265;28;20019;-70
2021/05/17 02:54:58;;;;;;;1.02;0.70;;;;;;;;;;5110230;28;20024;-70
2021/05/17 02:57:50;;;;;;;4.60;1.35;;;;;;;;;;5130627;27;20120;-70
2021/05/17 03:00:18;;;;;;;2.13;1.10;;;;;;;;;;5092251;28;20028;-70
2021/05/17 03:07:07;;;;;;;2.20;0.63;;;;;;;;;;5110333;27;20917;-70
2021/05/17 03:09:33;;;;;;;1.15;0.60;;;;;;;;;;5110724;28;20107;-70
2021/05/17 03:12:00;;;;;;;1.02;0.93;;;;;;;;;;5110114;28;20047;-70
2021/05/17 03:16:27;;;;;;;5.07;0.98;;;;;;;;;;5110455;27;20458;-69
2021/05/17 03:18:54;;;;;;;4.05;0.90;;;;;;;;;;5110093;28;20027;-69
2021/05/17 03:22:06;;;;;;;3.45;1.00;;;;;;;;;;5110490;27;20458;-69
2021/05/17 03:24:34;;;;;;;1.13;0.77;;;;;;;;;;5110054;28;20438;-69
2021/05/17 03:27:13;;;;;;;1.75;0.80;;;;;;;;;;5110541;28;20070;-70
2021/05/17 03:30:21;;;;;;;2.67;1.10;;;;;;;;;;5110634;27;20872;-70
2021/05/17 03:32:47;;;;;;;2.15;0.93;;;;;;;;;;5108790;28;20415;-70
2021/05/17 03:35:14;;;;;;;1.52;0.90;;;;;;;;;;5110290;28;20020;-70
2021/05/17 03:37:40;;;;;;;3.15;1.20;;;;;;;;;;5110427;28;20484;-70
2021/05/17 03:41:21;;;;;;;2.67;0.80;;;;;;;;;;5110428;27;20953;-70
2021/05/17 03:43:48;;;;;;;1.33;0.70;;;;;;;;;;5110497;28;20496;-71
2021/05/17 03:46:14;;;;;;;3.55;1.23;;;;;;;;;;5109899;28;20016;-70
2021/05/17 03:49:21;;;;;;;3.85;0.90;;;;;;;;;;5110658;27;20795;-70
2021/05/17 03:51:47;;;;;;;2.20;1.02;;;;;;;;;;5110526;28;20055;-71
2021/05/17 03:54:13;;;;;;;3.28;1.75;;;;;;;;;;5110113;28;20024;-70
2021/05/17 03:56:40;;;;;;;2.42;1.13;;;;;;;;;;5110407;28;20016;-70
2021/05/17 03:59:06;;;;;;;4.72;1.23;;;;;;;;;;5110262;28;20024;-72
2021/05/17 04:01:32;;;;;;;2.95;1.10;;;;;;;;;;5109915;28;20038;-72
2021/05/17 04:03:59;;;;;;;1.95;0.90;;;;;;;;;;5110256;28;20024;-71
2021/05/17 04:15:13;;;;;;;2.00;0.77;;;;;;;;;;5108130;27;20783;-69
2021/05/17 04:17:39;;;;;;;1.60;0.90;;;;;;;;;;5107550;28;20111;-70
2021/05/17 04:21:24;;;;;;;1.38;0.88;;;;;;;;;;5109473;27;20397;-70
2021/05/17 04:24:15;;;;;;;1.42;0.77;;;;;;;;;;5110515;27;20377;-71
2021/05/17 04:26:42;;;;;;;1.27;0.85;;;;;;;;;;5110506;28;20430;-72
2021/05/17 04:29:08;;;;;;;2.17;1.00;;;;;;;;;;5110296;28;20103;-71
2021/05/17 04:31:34;;;;;;;1.52;1.20;;;;;;;;;;5110390;28;20020;-72
2021/05/17 04:34:00;;;;;;;3.28;1.42;;;;;;;;;;5109904;28;20031;-72
2021/05/17 04:36:28;;;;;;;1.38;0.75;;;;;;;;;;5109821;28;20032;-72
2021/05/17 04:38:55;;;;;;;2.40;0.90;;;;;;;;;;5108979;28;20024;-71
2021/05/17 04:43:18;;;;;;;2.95;1.00;;;;;;;;;;5110043;27;20388;-70
2021/05/17 04:45:44;;;;;;;2.53;1.13;;;;;;;;;;5110398;28;20028;-70
2021/05/17 04:48:10;;;;;;;3.33;1.48;;;;;;;;;;5110566;28;20031;-70
2021/05/17 04:50:36;;;;;;;2.22;1.25;;;;;;;;;;5110100;28;20027;-71
2021/05/17 04:55:07;;;;;;;5.57;2.17;;;;;;;;;;5110454;27;20384;-70
2021/05/17 04:57:33;;;;;;;3.50;1.67;;;;;;;;;;5109997;28;20020;-70
2021/05/17 05:01:56;;;;;;;4.20;1.70;;;;;;;;;;5110378;27;20385;-71
2021/05/17 05:06:24;;;;;;;7.53;2.08;;;;;;;;;;5110367;27;20945;-70
2021/05/17 05:08:51;;;;;;;5.63;2.50;;;;;;;;;;5109770;28;20074;-70
2021/05/17 05:11:17;;;;;;;5.85;2.28;;;;;;;;;;5107927;28;20032;-69
2021/05/17 05:17:32;;;;;;;4.60;2.20;;;;;;;;;;5127178;27;20384;-69
2021/05/17 05:19:58;;;;;;;8.18;3.25;;;;;;;;;;5128817;28;20035;-69
2021/05/17 05:24:27;;;;;;;4.57;1.92;;;;;;;;;;5108054;27;20393;-69
2021/05/17 05:27:11;;;;;;;5.75;2.45;;;;;;;;;;5107380;28;20055;-70
2021/05/17 05:31:26;;;;;;;4.90;2.50;;;;;;;;;;5108097;27;20430;-69
2021/05/17 05:33:53;;;;;;;7.15;2.70;;;;;;;;;;5109239;28;20046;-70
2021/05/17 05:36:19;;;;;;;4.47;1.67;;;;;;;;;;5109489;28;20426;-70
2021/05/17 05:38:45;;;;;;;4.95;2.53;;;;;;;;;;5109130;28;20402;-71
2021/05/17 05:41:12;;;;;;;5.55;2.00;;;;;;;;;;5106110;28;20024;-71
2021/05/17 05:48:30;;;;;;;5.68;2.55;;;;;;;;;;5108302;27;20393;-72
2021/05/17 05:50:57;;;;;;;5.05;2.13;;;;;;;;;;5107886;28;20023;-71
2021/05/17 05:54:11;;;;;;;3.78;1.98;;;;;;;;;;5108643;27;20954;-70
2021/05/17 05:56:37;;;;;;;4.15;1.70;;;;;;;;;;5109739;28;20111;-73
2021/05/17 05:59:03;;;;;;;5.20;3.60;;;;;;;;;;5108166;28;20028;-72
2021/05/17 06:01:29;;;;;;;3.55;1.98;;;;;;;;;;5110264;28;20488;-74
2021/05/17 06:06:22;;;;;;;5.85;1.85;;;;;;;;;;5109845;27;20414;-70
2021/05/17 06:08:48;;;;;;;4.75;1.63;;;;;;;;;;5110548;28;20041;-72
2021/05/17 06:13:08;;;;;;;4.45;2.20;;;;;;;;;;5105459;27;20953;-69
2021/05/17 06:15:35;;;;;;;5.70;2.08;;;;;;;;;;5107391;28;20540;-68
2021/05/17 06:18:02;;;;;;;6.80;2.72;;;;;;;;;;5108023;28;20089;-72
2021/05/17 06:22:37;;;;;;;6.13;2.20;;;;;;;;;;5102500;27;20389;-73
2021/05/17 06:25:13;;;;;;;4.03;2.05;;;;;;;;;;5105963;28;20055;-72
2021/05/17 06:27:40;;;;;;;4.03;1.73;;;;;;;;;;5106326;28;20464;-72
2021/05/17 06:31:05;;;;;;;2.90;1.40;;;;;;;;;;5109627;27;20442;-72
2021/05/17 06:34:26;;;;;;;4.57;1.52;;;;;;;;;;5107874;27;20788;-73
2021/05/17 06:37:00;;;;;;;3.83;1.48;;;;;;;;;;5069463;28;20465;-71
2021/05/17 06:39:45;;;;;;;4.82;1.80;;;;;;;;;;5064075;28;20449;-72
2021/05/17 06:42:18;;;;;;;3.97;2.00;;;;;;;;;;5065963;28;20021;-73
2021/05/17 06:44:46;;;;;;;2.30;1.10;;;;;;;;;;5069373;28;20112;-73
2021/05/17 06:50:35;;;;;;;2.05;1.30;;;;;;;;;;5107875;27;20389;-70
2021/05/17 06:53:07;;;;;;;3.95;1.67;;;;;;;;;;5108089;28;20093;-71
2021/05/17 06:55:47;;;;;;;3.28;1.60;;;;;;;;;;5107779;28;20088;-74
2021/05/17 06:58:22;;;;;;;3.78;1.65;;;;;;;;;;5106709;27;20103;-73
2021/05/17 07:00:48;;;;;;;5.53;1.40;;;;;;;;;;5109136;28;20019;-76
2021/05/17 07:03:14;;;;;;;4.10;1.90;;;;;;;;;;5106613;28;20067;-76
2021/05/17 07:05:42;;;;;;;3.92;1.58;;;;;;;;;;5109153;28;20482;-74
2021/05/17 07:13:21;;;;;;;3.45;1.58;;;;;;;;;;5109625;28;20392;-74
2021/05/17 07:15:47;;;;;;;5.65;1.77;;;;;;;;;;5108898;28;20083;-75
2021/05/17 07:18:49;;;;;;;4.07;1.85;;;;;;;;;;5109624;27;20442;-74
2021/05/17 07:23:42;;;;;;;3.65;1.60;;;;;;;;;;5109179;28;20031;-73
2021/05/17 07:26:10;;;;;;;4.07;2.13;;;;;;;;;;5104229;28;20663;-76
2021/05/17 07:28:36;;;;;;;3.25;1.50;;;;;;;;;;5103990;28;20032;-76
2021/05/17 07:31:05;;;;;;;4.57;1.70;;;;;;;;;;5103888;28;20047;-74
2021/05/17 07:34:49;;;;;;;3.00;1.33;;;;;;;;;;5108263;27;20385;-74
2021/05/17 07:37:16;;;;;;;5.68;1.50;;;;;;;;;;5106731;28;20492;-77
2021/05/17 07:39:42;;;;;;;3.00;1.20;;;;;;;;;;5106162;28;20117;-74
2021/05/17 07:42:09;;;;;;;2.78;1.08;;;;;;;;;;5106827;28;20047;-77
2021/05/17 07:44:35;;;;;;;3.58;1.17;;;;;;;;;;5107862;28;20043;-75
2021/05/17 07:47:02;;;;;;;1.70;0.80;;;;;;;;;;5106569;28;20387;-75
2021/05/17 07:49:42;;;;;;;3.20;0.77;;;;;;;;;;5108978;28;20050;-75
2021/05/17 07:52:09;;;;;;;2.47;1.55;;;;;;;;;;5109332;28;20063;-73
2021/05/17 07:54:36;;;;;;;2.70;1.33;;;;;;;;;;5108391;28;20480;-76
2021/05/17 07:57:04;;;;;;;3.15;1.00;;;;;;;;;;5112163;28;20016;-78
2021/05/17 07:59:32;;;;;;;4.30;1.10;;;;;;;;;;5112806;28;20427;-75
2021/05/17 08:01:58;;;;;;;1.90;0.93;;;;;;;;;;5104025;28;20043;-79
2021/05/17 08:05:11;;;;;;;0.80;0.70;;;;;;;;;;5104855;27;20729;-74
2021/05/17 08:07:37;;;;;;;1.88;0.98;;;;;;;;;;5107399;28;20024;-78
2021/05/17 08:10:04;;;;;;;2.45;0.82;;;;;;;;;;5107275;28;20031;-74
2021/05/17 08:12:33;;;;;;;1.23;0.60;;;;;;;;;;5105835;28;20020;-74
2021/05/17 08:15:03;;;;;;;1.42;0.68;;;;;;;;;;5108742;28;20043;-74
2021/05/17 08:17:33;;;;;;;1.98;0.63;;;;;;;;;;5109567;28;20024;-75
2021/05/17 08:19:59;;;;;;;1.30;0.70;;;;;;;;;;5108230;28;20028;-75
2021/05/17 08:22:25;;;;;;;0.57;0.40;;;;;;;;;;5107564;28;20027;-74
2021/05/17 08:24:54;;;;;;;1.45;0.70;;;;;;;;;;5107984;28;20042;-75
2021/05/17 08:27:20;;;;;;;1.35;0.68;;;;;;;;;;5103539;28;20012;-76
2021/05/17 08:29:47;;;;;;;2.33;0.85;;;;;;;;;;5107498;28;20028;-77
2021/05/17 08:32:13;;;;;;;3.90;1.33;;;;;;;;;;5109340;28;20028;-76
2021/05/17 08:34:39;;;;;;;4.47;0.70;;;;;;;;;;5108147;28;20020;-74
2021/05/17 08:37:05;;;;;;;1.95;1.02;;;;;;;;;;5108752;28;20020;-76
2021/05/17 08:39:44;;;;;;;1.27;0.50;;;;;;;;;;5062978;28;20383;-75
2021/05/17 08:42:12;;;;;;;2.75;0.75;;;;;;;;;;5067444;28;20366;-76
2021/05/17 08:46:54;;;;;;;4.00;1.02;;;;;;;;;;5107804;27;20112;-69
2021/05/17 08:49:23;;;;;;;2.40;0.60;;;;;;;;;;5109133;28;20039;-71
2021/05/17 08:51:54;;;;;;;4.30;0.80;;;;;;;;;;5106205;28;20020;-68
2021/05/17 08:54:21;;;;;;;2.72;0.55;;;;;;;;;;5106667;28;20031;-67
2021/05/17 08:56:48;;;;;;;2.53;0.73;;;;;;;;;;5091435;28;20386;-67
2021/05/17 08:59:15;;;;;;;4.10;0.70;;;;;;;;;;5106294;28;20028;-78
2021/05/17 09:01:43;;;;;;;2.25;0.70;;;;;;;;;;5109657;28;20024;-81
2021/05/17 09:04:16;;;;;;;5.00;0.95;;;;;;;;;;5068856;28;20024;-79
2021/05/17 09:06:48;;;;;;;7.68;1.17;;;;;;;;;;5066927;28;20128;-75
2021/05/17 09:09:26;;;;;;;2.97;1.38;;;;;;;;;;5068912;28;20023;-74
2021/05/17 09:12:10;;;;;;;2.30;1.00;;;;;;;;;;5068707;28;20032;-74
2021/05/17 09:14:37;;;;;;;2.05;0.70;;;;;;;;;;5068224;28;20025;-74
2021/05/17 09:17:04;;;;;;;4.68;1.00;;;;;;;;;;5068340;28;20029;-74
2021/05/17 09:19:32;;;;;;;1.00;0.77;;;;;;;;;;5068461;28;20035;-75
2021/05/17 09:23:18;;;;;;;2.65;0.70;;;;;;;;;;5109637;27;20453;-79
2021/05/17 09:26:28;;;;;;;2.20;1.30;;;;;;;;;;5109292;27;20437;-75
2021/05/17 09:29:39;;;;;;;1.50;0.68;;;;;;;;;;5110827;27;20442;-78
2021/05/17 09:32:17;;;;;;;3.70;0.68;;;;;;;;;;5109210;28;20028;-76
2021/05/17 09:34:45;;;;;;;3.25;0.85;;;;;;;;;;5108647;28;20027;-77
2021/05/17 09:37:11;;;;;;;1.75;0.82;;;;;;;;;;5111602;28;20019;-75
2021/05/17 09:39:38;;;;;;;3.22;0.88;;;;;;;;;;5110305;28;20015;-78
2021/05/17 09:42:06;;;;;;;1.90;1.02;;;;;;;;;;5129900;28;20030;-77
2021/05/17 09:44:34;;;;;;;1.13;0.65;;;;;;;;;;5127858;28;20111;-77
2021/05/17 09:47:06;;;;;;;2.25;0.85;;;;;;;;;;5130334;28;20020;-76
2021/05/17 09:51:07;;;;;;;4.55;1.08;;;;;;;;;;5109901;27;20442;-76
2021/05/17 09:53:41;;;;;;;2.75;1.08;;;;;;;;;;5109109;28;20042;-75
2021/05/17 09:56:11;;;;;;;2.33;0.65;;;;;;;;;;5109781;28;20127;-75
2021/05/17 09:58:42;;;;;;;4.32;0.70;;;;;;;;;;5107663;28;20028;-75
2021/05/17 10:01:11;;;;;;;1.10;0.82;;;;;;;;;;5109704;28;20020;-76
2021/05/17 10:03:39;;;;;;;1.58;0.82;;;;;;;;;;5109684;28;20019;-75
2021/05/17 10:06:07;;;;;;;4.47;0.85;;;;;;;;;;5109089;28;20020;-72
2021/05/17 10:08:34;;;;;;;3.20;0.70;;;;;;;;;;5107710;28;20387;-76
2021/05/17 10:11:00;;;;;;;2.72;0.80;;;;;;;;;;5106105;28;20188;-74
2021/05/17 10:13:26;;;;;;;3.28;0.90;;;;;;;;;;5109283;28;20375;-79
2021/05/17 10:15:52;;;;;;;5.85;1.85;;;;;;;;;;5108317;28;20027;-76
2021/05/17 10:18:19;;;;;;;5.82;1.13;;;;;;;;;;5109036;28;20074;-73
2021/05/17 10:20:45;;;;;;;1.83;0.88;;;;;;;;;;5107166;28;20376;-76
2021/05/17 10:23:13;;;;;;;8.15;2.28;;;;;;;;;;5107789;28;20020;-75
2021/05/17 10:25:40;;;;;;;5.63;1.63;;;;;;;;;;5106033;28;20502;-79
2021/05/17 10:28:08;;;;;;;7.78;2.35;;;;;;;;;;5112648;28;20016;-77
2021/05/17 10:30:36;;;;;;;9.88;4.88;;;;;;;;;;5106298;28;20036;-76
2021/05/17 10:33:03;;;;;;;1.45;0.55;;;;;;;;;;5108076;28;20016;-76
2021/05/17 10:35:32;;;;;;;1.98;0.80;;;;;;;;;;5105768;28;20506;-77
2021/05/17 10:38:16;;;;;;;1.33;0.60;;;;;;;;;;5107878;28;20508;-76
2021/05/17 10:40:46;;;;;;;1.13;0.80;;;;;;;;;;5108195;28;20020;-79
2021/05/17 10:43:30;;;;;;;1.13;0.52;;;;;;;;;;5109291;28;20357;-80
2021/05/17 10:49:13;;;;;;;3.90;1.73;;;;;;;;;;5108711;28;20046;-75
2021/05/17 10:51:39;;;;;;;1.65;0.70;;;;;;;;;;5108928;28;20392;-78
2021/05/17 10:54:20;;;;;;;2.80;0.82;;;;;;;;;;5109603;28;20027;-78
2021/05/17 11:02:14;;;;;;;3.20;0.70;;;;;;;;;;5098682;28;20457;-75
2021/05/17 11:04:41;;;;;;;3.35;0.93;;;;;;;;;;5095497;28;20028;-78
2021/05/17 11:07:10;;;;;;;2.55;0.70;;;;;;;;;;5094837;28;20030;-77
2021/05/17 11:10:03;;;;;;;3.38;0.93;;;;;;;;;;5093852;28;20058;-77
2021/05/17 11:12:29;;;;;;;1.63;0.70;;;;;;;;;;5073505;28;20064;-78
2021/05/17 11:15:02;;;;;;;2.15;0.70;;;;;;;;;;5074772;28;20071;-77
2021/05/17 11:17:28;;;;;;;3.28;0.90;;;;;;;;;;5074063;28;20031;-82
2021/05/17 11:19:55;;;;;;;3.75;1.15;;;;;;;;;;5080689;28;20063;-72
2021/05/17 11:22:22;;;;;;;2.17;1.00;;;;;;;;;;5097052;28;20498;-77
2021/05/17 11:24:54;;;;;;;2.78;0.80;;;;;;;;;;5098981;28;20035;-77
2021/05/17 11:27:20;;;;;;;;;;;;;;;;;;5096855;28;20020;-76
2021/05/17 11:29:46;;;;;;;2.55;0.93;;;;;;;;;;5093657;28;19927;-73
2021/05/17 11:32:14;;;;;;;3.25;1.02;;;;;;;;;;5096024;28;20040;-75
2021/05/17 11:35:00;;;;;;;2.45;0.60;;;;;;;;;;5115770;28;20080;-76
2021/05/17 11:37:26;;;;;;;2.35;0.70;;;;;;;;;;5115209;28;20488;-76
2021/05/17 11:39:52;;;;;;;1.75;0.93;;;;;;;;;;5101856;28;20485;-77
2021/05/17 11:42:19;;;;;;;4.00;1.42;;;;;;;;;;5095227;28;20024;-75
2021/05/17 11:47:14;;;;;;;3.20;0.60;;;;;;;;;;5094381;28;20051;-76
2021/05/17 11:49:41;;;;;;;2.45;0.73;;;;;;;;;;5093845;28;20052;-75
2021/05/17 11:52:09;;;;;;;4.30;1.17;;;;;;;;;;5093827;28;20020;-74
2021/05/17 11:54:40;;;;;;;1.77;0.60;;;;;;;;;;5093996;28;20424;-74
2021/05/17 11:57:06;;;;;;;1.67;0.73;;;;;;;;;;5094486;28;20016;-75
2021/05/17 11:59:33;;;;;;;3.95;1.20;;;;;;;;;;5094211;28;20024;-74
2021/05/17 12:02:02;;;;;;;1.50;0.80;;;;;;;;;;5094477;28;20024;-73
2021/05/17 12:04:36;;;;;;;5.15;1.05;;;;;;;;;;5093006;28;20032;-75
2021/05/17 12:07:05;;;;;;;7.03;1.00;;;;;;;;;;5093951;28;20500;-74
2021/05/17 12:09:33;;;;;;;2.85;0.85;;;;;;;;;;5093988;28;20388;-73
2021/05/17 12:12:00;;;;;;;3.17;0.88;;;;;;;;;;5093308;28;20024;-73
2021/05/17 12:14:26;;;;;;;3.65;0.90;;;;;;;;;;5093753;28;20096;-75
2021/05/17 12:17:03;;;;;;;5.10;1.20;;;;;;;;;;5093920;28;20024;-74
2021/05/17 12:19:29;;;;;;;5.60;1.42;;;;;;;;;;5093642;28;20054;-75
2021/05/17 12:22:00;;;;;;;2.63;0.70;;;;;;;;;;5093850;28;20024;-73
2021/05/17 12:24:27;;;;;;;1.85;0.75;;;;;;;;;;5094157;28;20153;-74
2021/05/17 12:27:05;;;;;;;3.10;1.65;;;;;;;;;;5094107;28;20110;-74
2021/05/17 12:29:48;;;;;;;2.90;0.98;;;;;;;;;;5093790;28;20028;-74
2021/05/17 12:32:15;;;;;;;4.05;1.08;;;;;;;;;;5092511;28;20028;-74
2021/05/17 12:34:57;;;;;;;2.25;0.90;;;;;;;;;;5093358;28;20031;-75
2021/05/17 12:37:23;;;;;;;;;;;;;;;;;;5094590;28;20377;-75
2021/05/17 12:40:13;;;;;;;2.78;0.85;;;;;;;;;;5093637;28;20001;-77
2021/05/17 12:42:39;;;;;;;5.10;1.30;;;;;;;;;;5065368;28;20028;-74
2021/05/17 12:45:15;;;;;;;2.53;0.57;;;;;;;;;;5093703;28;20024;-75
2021/05/17 12:47:45;;;;;;;6.68;1.20;;;;;;;;;;5093313;28;20024;-75
2021/05/17 12:50:20;;;;;;;2.13;1.00;;;;;;;;;;5093083;28;20040;-74
2021/05/17 12:52:47;;;;;;;3.33;0.80;;;;;;;;;;5093735;28;20055;-75
2021/05/17 12:55:29;;;;;;;1.90;0.68;;;;;;;;;;5069320;28;20883;-74
2021/05/17 12:57:55;;;;;;;3.80;1.25;;;;;;;;;;5068541;28;20386;-76
2021/05/17 13:00:38;;;;;;;3.15;1.10;;;;;;;;;;5070251;28;20016;-74
2021/05/17 13:03:18;;;;;;;4.65;0.85;;;;;;;;;;5069457;28;20017;-74
2021/05/17 13:05:49;;;;;;;3.83;1.13;;;;;;;;;;5069950;28;20392;-74
2021/05/17 13:08:15;;;;;;;2.47;1.15;;;;;;;;;;5068012;28;20040;-73
2021/05/17 13:10:57;;;;;;;5.25;1.02;;;;;;;;;;5068428;28;20424;-75
2021/05/17 13:13:41;;;;;;;5.15;1.00;;;;;;;;;;5069446;28;20024;-74
2021/05/17 13:16:12;;;;;;;1.77;0.70;;;;;;;;;;5069169;28;20029;-75
2021/05/17 13:19:58;;;;;;;3.83;1.23;;;;;;;;;;5110399;27;20730;-74
2021/05/17 13:32:23;;;;;;;2.15;0.70;;;;;;;;;;5085502;28;20417;-74
2021/05/17 13:34:49;;;;;;;3.03;0.90;;;;;;;;;;5069919;28;20130;-74
2021/05/17 13:37:15;;;;;;;3.42;0.57;;;;;;;;;;5069484;28;20473;-74
2021/05/17 13:39:41;;;;;;;2.80;0.85;;;;;;;;;;5069793;28;20147;-75
2021/05/17 13:42:07;;;;;;;2.58;0.60;;;;;;;;;;5069713;28;20021;-74
2021/05/17 13:44:33;;;;;;;4.03;0.60;;;;;;;;;;5069371;28;20017;-74
2021/05/17 13:47:00;;;;;;;2.63;0.70;;;;;;;;;;5069913;28;20095;-75
2021/05/17 13:49:27;;;;;;;4.28;0.90;;;;;;;;;;5069576;28;20020;-73
2021/05/17 13:51:53;;;;;;;1.67;0.77;;;;;;;;;;5069049;28;20033;-75
2021/05/17 13:54:19;;;;;;;3.38;1.10;;;;;;;;;;5068409;28;20059;-74
2021/05/17 13:56:47;;;;;;;1.48;0.60;;;;;;;;;;5069483;28;20477;-74
2021/05/17 13:59:13;;;;;;;2.95;1.02;;;;;;;;;;5068973;28;20032;-74
2021/05/17 14:01:40;;;;;;;0.95;0.50;;;;;;;;;;5068191;28;20021;-74
2021/05/17 14:04:32;;;;;;;7.43;0.90;;;;;;;;;;5110245;27;20504;-74
2021/05/17 14:06:59;;;;;;;2.10;0.90;;;;;;;;;;5109336;28;20399;-74
2021/05/17 14:09:25;;;;;;;4.43;1.58;;;;;;;;;;5110972;28;20024;-74
2021/05/17 14:11:51;;;;;;;3.65;1.70;;;;;;;;;;5111104;28;20024;-74
2021/05/17 14:14:18;;;;;;;3.47;1.20;;;;;;;;;;5110418;28;20094;-73
2021/05/17 14:18:36;;;;;;;2.05;1.00;;;;;;;;;;5109940;27;20385;-73
2021/05/17 14:21:02;;;;;;;2.55;0.90;;;;;;;;;;5110412;28;20476;-73
2021/05/17 14:23:29;;;;;;;2.80;0.90;;;;;;;;;;5110275;28;20028;-73
2021/05/17 14:25:55;;;;;;;4.35;1.38;;;;;;;;;;5108961;28;20035;-75
2021/05/17 14:28:21;;;;;;;2.70;1.10;;;;;;;;;;5110242;28;20035;-73
2021/05/17 14:31:09;;;;;;;3.97;1.17;;;;;;;;;;5110355;27;20801;-73
2021/05/17 14:33:35;;;;;;;2.20;1.00;;;;;;;;;;5110170;28;20035;-73
2021/05/17 14:36:01;;;;;;;1.83;1.00;;;;;;;;;;5110383;28;20460;-74
2021/05/17 14:38:28;;;;;;;1.73;1.00;;;;;;;;;;5110281;28;20028;-75
2021/05/17 14:40:54;;;;;;;4.22;1.25;;;;;;;;;;5109928;28;20051;-74
2021/05/17 14:43:20;;;;;;;7.32;1.77;;;;;;;;;;5108966;28;20536;-74
2021/05/17 14:45:46;;;;;;;3.13;1.42;;;;;;;;;;5110467;28;20034;-74
2021/05/17 14:48:12;;;;;;;5.35;1.40;;;;;;;;;;5109890;28;20099;-74
2021/05/17 14:50:39;;;;;;;3.20;1.40;;;;;;;;;;5110223;28;20032;-75
2021/05/17 14:53:05;;;;;;;1.13;0.82;;;;;;;;;;5110275;28;20092;-75
2021/05/17 14:55:31;;;;;;;2.53;1.00;;;;;;;;;;5108823;28;20039;-76
2021/05/17 14:57:57;;;;;;;3.05;1.17;;;;;;;;;;5110293;28;20023;-75
2021/05/17 15:00:25;;;;;;;3.92;1.70;;;;;;;;;;5109925;28;20020;-73
2021/05/17 15:03:58;;;;;;;3.95;1.30;;;;;;;;;;5102325;27;20387;-74
2021/05/17 15:06:25;;;;;;;4.30;1.13;;;;;;;;;;5068459;28;20154;-74
2021/05/17 15:09:58;;;;;;;2.22;0.90;;;;;;;;;;5110203;27;20172;-73
2021/05/17 15:12:24;;;;;;;2.42;0.90;;;;;;;;;;5110283;28;20031;-74
2021/05/17 15:14:50;;;;;;;3.65;1.08;;;;;;;;;;5108634;28;20549;-74
2021/05/17 15:17:17;;;;;;;1.85;0.82;;;;;;;;;;5110415;28;20039;-73
2021/05/17 15:19:43;;;;;;;1.83;1.25;;;;;;;;;;5110272;28;20026;-74
2021/05/17 15:22:09;;;;;;;1.65;0.70;;;;;;;;;;5109539;28;20694;-72
2021/05/17 15:24:35;;;;;;;3.40;1.55;;;;;;;;;;5109016;28;20387;-72
2021/05/17 15:27:02;;;;;;;3.92;1.60;;;;;;;;;;5109005;28;20020;-74
2021/05/17 15:29:28;;;;;;;2.45;1.30;;;;;;;;;;5109739;28;20476;-72
2021/05/17 15:31:54;;;;;;;6.57;1.00;;;;;;;;;;5110153;28;20039;-73
2021/05/17 15:34:21;;;;;;;5.20;1.65;;;;;;;;;;5110028;28;20026;-74
2021/05/17 15:37:28;;;;;;;1.10;0.68;;;;;;;;;;5110136;27;20926;-74
2021/05/17 15:39:54;;;;;;;4.78;1.30;;;;;;;;;;5110423;28;20031;-75
2021/05/17 15:42:21;;;;;;;4.75;1.13;;;;;;;;;;5110473;28;20375;-75
2021/05/17 15:44:47;;;;;;;4.03;0.82;;;;;;;;;;5110249;28;20023;-74
2021/05/17 15:47:13;;;;;;;3.40;0.80;;;;;;;;;;5110391;28;20016;-74
2021/05/17 15:49:39;;;;;;;1.88;0.75;;;;;;;;;;5108835;28;20106;-75
2021/05/17 15:52:05;;;;;;;5.70;1.27;;;;;;;;;;5110377;28;20094;-76
2021/05/17 15:54:32;;;;;;;2.45;1.08;;;;;;;;;;5110187;28;20051;-75
2021/05/17 15:56:58;;;;;;;1.02;0.85;;;;;;;;;;5109766;28;20038;-75
2021/05/17 15:59:24;;;;;;;2.97;0.57;;;;;;;;;;5110218;28;20504;-74
2021/05/17 16:01:50;;;;;;;1.13;0.47;;;;;;;;;;5108864;28;20028;-75
2021/05/17 16:04:16;;;;;;;2.17;0.80;;;;;;;;;;5109934;28;20028;-74
2021/05/17 16:06:43;;;;;;;5.05;0.73;;;;;;;;;;5110001;28;20054;-75
2021/05/17 16:09:09;;;;;;;1.17;0.60;;;;;;;;;;5110023;28;20027;-75
2021/05/17 16:11:39;;;;;;;3.63;1.02;;;;;;;;;;5109713;28;20361;-75
2021/05/17 16:14:25;;;;;;;2.17;0.75;;;;;;;;;;5110223;28;20099;-75
2021/05/17 16:22:05;;;;;;;4.40;1.30;;;;;;;;;;5109988;28;20043;-73
2021/05/17 16:24:31;;;;;;;3.65;1.30;;;;;;;;;;5109836;28;20019;-75
2021/05/17 16:26:57;;;;;;;3.05;1.15;;;;;;;;;;5109100;28;20388;-75
2021/05/17 16:29:23;;;;;;;2.88;1.50;;;;;;;;;;5109564;28;20031;-75
2021/05/17 16:31:50;;;;;;;3.30;0.90;;;;;;;;;;5109447;28;20043;-74
2021/05/17 16:34:16;;;;;;;4.60;0.90;;;;;;;;;;5108137;28;20051;-73
2021/05/17 16:36:43;;;;;;;1.60;0.77;;;;;;;;;;5109030;28;20056;-74
2021/05/17 16:39:10;;;;;;;2.78;1.02;;;;;;;;;;5107676;28;20078;-75
2021/05/17 16:41:37;;;;;;;1.10;0.60;;;;;;;;;;5107885;28;20495;-73
2021/05/17 16:44:04;;;;;;;4.35;1.63;;;;;;;;;;5109642;28;20032;-72
2021/05/17 16:46:30;;;;;;;6.50;1.75;;;;;;;;;;5108701;28;20535;-72
2021/05/17 16:49:03;;;;;;;6.90;2.05;;;;;;;;;;5094928;28;20020;-73
2021/05/17 16:51:29;;;;;;;;;;;;;;;;;;5095997;28;20111;-72
2021/05/17 16:53:55;;;;;;;5.38;3.03;;;;;;;;;;5093745;28;19961;-72
2021/05/17 16:58:14;;;;;;;6.72;2.53;;;;;;;;;;5110496;27;20944;-72
2021/05/17 17:00:41;;;;;;;5.10;1.90;;;;;;;;;;5108789;28;20020;-72
2021/05/17 17:03:07;;;;;;;4.40;2.00;;;;;;;;;;5110663;28;20028;-72
2021/05/17 17:05:33;;;;;;;8.20;4.18;;;;;;;;;;5110502;28;20030;-74
2021/05/17 17:08:03;;;;;;;6.53;2.10;;;;;;;;;;5110040;28;20027;-75
2021/05/17 17:10:30;;;;;;;3.17;1.33;;;;;;;;;;5109081;28;20396;-74
2021/05/17 17:12:56;;;;;;;5.63;2.05;;;;;;;;;;5110377;28;20028;-72
2021/05/17 17:15:22;;;;;;;1.70;1.00;;;;;;;;;;5109884;28;20028;-72
2021/05/17 17:17:48;;;;;;;2.35;1.13;;;;;;;;;;5109915;28;20028;-74
2021/05/17 17:20:15;;;;;;;5.57;1.30;;;;;;;;;;5108792;28;20100;-73
2021/05/17 17:22:41;;;;;;;3.28;1.35;;;;;;;;;;5108360;28;20480;-73